createdAt,value
2023-03-23T15:59:58.894Z,51.63
2023-03-23T16:03:04.632Z,51.64
2023-03-23T16:06:10.463Z,51.62
2023-03-23T16:09:15.393Z,51.68
2023-03-23T16:12:18.453Z,51.70
2023-03-23T16:15:21.586Z,51.71
2023-03-23T16:18:24.726Z,51.83
2023-03-23T16:21:27.828Z,51.83
2023-03-23T16:24:30.860Z,51.93
2023-03-23T16:27:33.953Z,51.98
2023-03-23T16:30:37.148Z,52.11
2023-03-23T16:33:40.473Z,52.05
2023-03-23T16:36:43.541Z,52.10
2023-03-23T16:39:46.613Z,52.13
2023-03-23T16:42:50.686Z,52.22
2023-03-23T16:45:56.167Z,52.25
2023-03-23T16:48:59.306Z,52.25
2023-03-23T16:52:02.567Z,52.32
2023-03-23T16:55:18.778Z,52.39
2023-03-23T16:58:21.847Z,52.46
2023-03-23T17:01:30.837Z,52.56
2023-03-23T17:04:47.090Z,52.66
2023-03-23T17:07:50.621Z,52.70
2023-03-23T17:10:56.945Z,52.84
2023-03-23T17:14:03.161Z,52.94
2023-03-23T17:17:10.261Z,52.96
2023-03-23T17:20:16.984Z,52.99
2023-03-23T17:23:21.631Z,53.09
2023-03-23T17:26:24.700Z,53.19
2023-03-23T17:29:28.693Z,53.25
2023-03-23T17:32:31.786Z,53.30
2023-03-23T17:35:36.061Z,53.38
2023-03-23T17:38:39.245Z,53.47
2023-03-23T17:41:42.268Z,53.57
2023-03-23T17:44:47.923Z,53.54
2023-03-23T17:47:53.555Z,53.56
2023-03-23T17:51:00.056Z,53.70
2023-03-23T17:54:03.455Z,53.74
2023-03-23T17:57:06.960Z,53.72
2023-03-23T18:00:10.294Z,53.73
2023-03-23T18:03:13.388Z,53.70
2023-03-23T18:06:16.534Z,53.77
2023-03-23T18:09:19.916Z,53.87
2023-03-23T18:12:23.025Z,53.98
2023-03-23T18:15:28.218Z,54.05
2023-03-23T18:18:32.362Z,54.11
2023-03-23T18:21:35.421Z,54.14
2023-03-23T18:24:38.606Z,54.17
2023-03-23T18:27:41.830Z,54.21
2023-03-23T18:30:49.187Z,54.28
2023-03-23T18:33:54.050Z,54.37
2023-03-23T18:36:57.067Z,54.44
2023-03-23T18:40:00.395Z,54.47
2023-03-23T18:43:03.630Z,54.54
2023-03-23T18:46:08.945Z,54.63
2023-03-23T18:49:12.088Z,54.77
2023-03-23T18:52:15.157Z,54.83
2023-03-23T18:55:20.096Z,54.86
2023-03-23T18:58:24.488Z,54.86
2023-03-23T19:01:27.616Z,54.93
2023-03-23T19:04:33.927Z,54.95
2023-03-23T19:07:38.288Z,54.97
2023-03-23T19:10:42.633Z,54.98
2023-03-23T19:13:58.130Z,55.02
2023-03-23T19:17:04.297Z,55.00
2023-03-23T19:20:14.541Z,54.98
2023-03-23T19:23:23.046Z,54.97
2023-03-23T19:26:31.136Z,54.99
2023-03-23T19:29:35.351Z,54.98
2023-03-23T19:32:38.360Z,55.02
2023-03-23T19:35:49.046Z,55.04
2023-03-23T19:38:54.373Z,55.09
2023-03-23T19:41:57.421Z,55.12
2023-03-23T19:45:01.546Z,55.15
2023-03-23T19:48:04.666Z,55.20
2023-03-23T19:51:08.034Z,55.22
2023-03-23T19:54:13.206Z,55.26
2023-03-23T19:57:16.740Z,55.28
2023-03-23T20:00:19.841Z,55.32
2023-03-23T20:03:23.181Z,55.39
2023-03-23T20:06:28.721Z,55.48
2023-03-23T20:09:33.094Z,55.57
2023-03-23T20:12:36.724Z,55.63
2023-03-23T20:15:39.746Z,55.69
2023-03-23T20:18:43.144Z,55.76
2023-03-23T20:21:46.275Z,55.81
2023-03-23T20:24:49.484Z,55.85
2023-03-23T20:27:55.057Z,55.88
2023-03-23T20:31:19.048Z,55.92
2023-03-23T20:34:31.680Z,55.95
2023-03-23T20:37:38.063Z,56.01
2023-03-23T20:40:40.981Z,56.04
2023-03-23T20:43:44.230Z,56.07
2023-03-23T20:46:48.410Z,56.12
2023-03-23T20:49:52.668Z,56.16
2023-03-23T20:52:56.889Z,56.18
2023-03-23T20:56:02.051Z,56.21
2023-03-23T20:59:05.764Z,56.23
2023-03-23T21:02:12.567Z,56.24
2023-03-23T21:05:15.604Z,56.25
2023-03-23T21:08:19.089Z,56.29
2023-03-23T21:11:24.694Z,56.33
2023-03-23T21:14:27.686Z,56.34
2023-03-23T21:17:30.783Z,56.34
2023-03-23T21:20:34.942Z,56.35
2023-03-23T21:23:38.943Z,56.38
2023-03-23T21:26:42.104Z,56.42
2023-03-23T21:29:45.028Z,56.42
2023-03-23T21:32:48.320Z,56.41
2023-03-23T21:35:51.253Z,56.41
2023-03-23T21:38:55.084Z,56.38
2023-03-23T21:41:59.585Z,56.38
2023-03-23T21:45:02.775Z,56.38
2023-03-23T21:48:06.443Z,56.33
2023-03-23T21:51:11.530Z,56.30
2023-03-23T21:54:14.940Z,56.25
2023-03-23T21:57:17.980Z,56.20
2023-03-23T22:00:21.070Z,56.19
2023-03-23T22:03:25.011Z,56.20
2023-03-23T22:06:28.583Z,56.17
2023-03-23T22:09:31.697Z,56.18
2023-03-23T22:12:35.645Z,56.21
2023-03-23T22:15:38.666Z,56.23
2023-03-23T22:18:43.454Z,56.23
2023-03-23T22:21:46.926Z,56.25
2023-03-23T22:24:50.039Z,56.19
2023-03-23T22:27:53.116Z,56.19
2023-03-23T22:31:00.459Z,56.18
2023-03-23T22:34:03.575Z,56.19
2023-03-23T22:37:06.631Z,56.18
2023-03-23T22:40:11.502Z,56.19
2023-03-23T22:43:14.528Z,56.17
2023-03-23T22:46:17.607Z,56.18
2023-03-23T22:49:20.807Z,56.19
2023-03-23T22:52:23.764Z,56.18
2023-03-23T22:55:27.174Z,56.19
2023-03-23T22:58:30.513Z,56.17
2023-03-23T23:01:34.185Z,56.16
2023-03-23T23:04:37.239Z,56.16
2023-03-23T23:07:40.625Z,56.16
2023-03-23T23:10:44.741Z,56.18
2023-03-23T23:13:48.326Z,56.19
2023-03-23T23:16:51.857Z,56.18
2023-03-23T23:19:55.005Z,56.19
2023-03-23T23:22:58.056Z,56.21
2023-03-23T23:26:01.502Z,56.21
2023-03-23T23:29:04.808Z,56.21
2023-03-23T23:32:08.284Z,56.23
2023-03-23T23:35:12.773Z,56.22
2023-03-23T23:38:16.697Z,56.24
2023-03-23T23:41:19.810Z,56.28
2023-03-23T23:44:22.877Z,56.31
2023-03-23T23:47:26.028Z,56.36
2023-03-23T23:50:29.375Z,56.39
2023-03-23T23:53:32.451Z,56.41
2023-03-23T23:56:36.195Z,56.43
2023-03-23T23:59:39.399Z,56.46
